createdAt,value
2022-08-04T00:01:46.583Z,2.55
2022-08-04T00:06:56.010Z,2.60
2022-08-04T00:09:31.362Z,2.53
2022-08-04T00:12:01.943Z,2.33
2022-08-04T00:14:34.810Z,2.70
2022-08-04T00:17:06.063Z,2.88
2022-08-04T00:19:41.254Z,2.38
2022-08-04T00:22:11.438Z,2.88
2022-08-04T00:24:40.968Z,2.20
2022-08-04T00:27:09.552Z,3.00
2022-08-04T00:29:39.633Z,2.83
2022-08-04T00:32:09.363Z,2.42
2022-08-04T00:34:38.098Z,2.70
2022-08-04T00:37:07.530Z,2.55
2022-08-04T00:39:35.293Z,2.63
2022-08-04T00:42:58.685Z,2.92
2022-08-04T00:46:11.087Z,2.60
2022-08-04T00:48:57.529Z,3.13
2022-08-04T00:54:07.441Z,2.95
2022-08-04T00:56:58.471Z,2.75
2022-08-04T00:59:45.516Z,3.00
2022-08-04T01:02:25.877Z,2.50
2022-08-04T01:05:03.932Z,3.17
2022-08-04T01:07:49.058Z,2.35
2022-08-04T01:10:25.196Z,2.78
2022-08-04T01:13:14.979Z,2.50
2022-08-04T01:16:00.209Z,2.75
2022-08-04T01:18:41.133Z,3.08
2022-08-04T01:21:32.312Z,2.97
2022-08-04T01:24:20.223Z,3.55
2022-08-04T01:26:58.324Z,2.65
2022-08-04T01:29:42.979Z,2.78
2022-08-04T01:32:25.667Z,2.70
2022-08-04T01:35:00.887Z,2.65
2022-08-04T01:37:45.172Z,2.80
2022-08-04T01:40:15.511Z,2.67
2022-08-04T01:42:45.548Z,2.78
2022-08-04T01:45:16.609Z,2.55
2022-08-04T01:47:50.532Z,2.40
2022-08-04T01:50:18.234Z,2.90
2022-08-04T01:52:50.673Z,2.97
2022-08-04T01:55:19.621Z,3.25
2022-08-04T01:57:48.767Z,3.15
2022-08-04T02:00:20.029Z,2.97
2022-08-04T02:02:48.043Z,3.00
2022-08-04T02:05:17.864Z,2.80
2022-08-04T02:07:56.726Z,3.28
2022-08-04T02:10:30.127Z,2.55
2022-08-04T02:13:18.373Z,2.47
2022-08-04T02:15:58.829Z,2.63
2022-08-04T02:18:31.577Z,2.65
2022-08-04T02:21:01.564Z,2.72
2022-08-04T02:23:32.507Z,2.80
2022-08-04T02:26:02.994Z,3.05
2022-08-04T02:28:36.496Z,2.55
2022-08-04T02:31:15.544Z,2.63
2022-08-04T02:33:45.501Z,2.85
2022-08-04T02:36:22.173Z,2.50
2022-08-04T02:38:57.886Z,2.50
2022-08-04T02:41:27.182Z,2.70
2022-08-04T02:43:58.470Z,2.90
2022-08-04T02:46:28.543Z,2.63
2022-08-04T02:48:57.451Z,2.80
2022-08-04T02:51:28.248Z,2.17
2022-08-04T02:53:57.490Z,2.58
2022-08-04T02:56:26.398Z,2.55
2022-08-04T02:58:59.293Z,2.65
2022-08-04T03:01:28.130Z,2.80
2022-08-04T03:04:27.777Z,2.60
2022-08-04T03:07:30.050Z,2.30
2022-08-04T03:10:28.697Z,2.25
2022-08-04T03:13:18.330Z,2.40
2022-08-04T03:15:59.243Z,3.38
2022-08-04T03:19:11.101Z,2.50
2022-08-04T03:22:14.635Z,2.65
2022-08-04T03:25:11.906Z,2.55
2022-08-04T03:28:14.455Z,2.22
2022-08-04T03:30:59.402Z,2.17
2022-08-04T03:33:46.293Z,2.58
2022-08-04T03:36:55.890Z,2.67
2022-08-04T03:39:56.164Z,2.33
2022-08-04T03:42:48.704Z,2.72
2022-08-04T03:45:56.002Z,2.50
2022-08-04T03:49:05.701Z,2.20
2022-08-04T03:51:56.469Z,2.25
2022-08-04T03:55:00.481Z,2.20
2022-08-04T03:57:49.946Z,2.20
2022-08-04T04:00:19.282Z,2.28
2022-08-04T04:03:28.885Z,2.33
2022-08-04T04:06:24.656Z,2.40
2022-08-04T04:09:21.101Z,2.05
2022-08-04T04:12:07.303Z,2.05
2022-08-04T04:14:47.363Z,1.90
2022-08-04T04:17:38.518Z,2.47
2022-08-04T04:20:24.364Z,2.10
2022-08-04T04:23:01.566Z,1.83
2022-08-04T04:25:40.808Z,2.47
2022-08-04T04:28:43.666Z,1.83
2022-08-04T04:31:38.971Z,2.20
2022-08-04T04:34:16.332Z,2.10
2022-08-04T04:36:57.367Z,1.80
2022-08-04T04:39:33.133Z,2.00
2022-08-04T04:42:12.868Z,1.95
2022-08-04T04:44:56.687Z,2.30
2022-08-04T04:47:43.354Z,2.25
2022-08-04T04:50:33.641Z,1.92
2022-08-04T04:53:13.623Z,1.73
2022-08-04T04:55:48.060Z,2.60
2022-08-04T04:58:18.932Z,1.85
2022-08-04T05:01:08.211Z,1.90
2022-08-04T05:03:50.043Z,2.20
2022-08-04T05:06:39.546Z,1.85
2022-08-04T05:09:32.966Z,1.67
2022-08-04T05:14:31.988Z,1.63
2022-08-04T05:15:09.425Z,1.92
2022-08-04T05:17:41.058Z,1.85
2022-08-04T05:20:14.341Z,2.03
2022-08-04T05:22:47.435Z,1.60
2022-08-04T05:25:21.911Z,1.75
2022-08-04T05:27:57.248Z,1.70
2022-08-04T05:30:26.754Z,1.90
2022-08-04T05:33:00.041Z,1.48
2022-08-04T05:35:50.501Z,1.58
2022-08-04T05:38:24.324Z,1.80
2022-08-04T05:40:53.359Z,1.60
2022-08-04T05:43:23.578Z,1.77
2022-08-04T05:45:52.503Z,1.63
2022-08-04T05:48:20.154Z,1.80
2022-08-04T05:50:50.085Z,1.50
2022-08-04T05:53:18.572Z,1.77
2022-08-04T05:55:48.964Z,1.52
2022-08-04T05:58:27.543Z,1.63
2022-08-04T06:00:56.656Z,1.77
2022-08-04T06:03:25.561Z,1.42
2022-08-04T06:05:55.649Z,2.30
2022-08-04T06:08:24.130Z,1.83
2022-08-04T06:10:52.375Z,1.38
2022-08-04T06:13:49.244Z,1.77
2022-08-04T06:16:17.818Z,1.48
2022-08-04T06:19:59.898Z,1.40
2022-08-04T06:21:49.797Z,1.63
2022-08-04T06:24:20.664Z,1.63
2022-08-04T06:26:50.364Z,1.50
2022-08-04T06:29:22.733Z,1.27
2022-08-04T06:32:27.364Z,1.65
2022-08-04T06:34:46.652Z,1.95
2022-08-04T06:37:23.971Z,2.15
2022-08-04T06:40:29.737Z,1.80
2022-08-04T06:42:56.798Z,1.63
2022-08-04T06:45:25.946Z,1.48
2022-08-04T06:47:55.509Z,1.40
2022-08-04T06:51:28.204Z,1.58
2022-08-04T06:53:13.001Z,1.70
2022-08-04T06:55:42.176Z,1.60
2022-08-04T06:58:11.145Z,1.55
2022-08-04T07:00:40.028Z,1.80
2022-08-04T07:03:08.408Z,1.60
2022-08-04T07:05:36.905Z,1.65
2022-08-04T07:08:05.510Z,1.50
2022-08-04T07:10:34.996Z,1.83
2022-08-04T07:13:03.382Z,1.80
2022-08-04T07:15:31.219Z,1.60
2022-08-04T07:18:01.255Z,1.33
2022-08-04T07:20:33.878Z,1.48
2022-08-04T07:23:04.505Z,1.58
2022-08-04T07:25:58.699Z,1.58
2022-08-04T07:28:22.615Z,1.45
2022-08-04T07:30:50.906Z,1.70
2022-08-04T07:33:19.116Z,1.67
2022-08-04T07:36:05.175Z,1.40
2022-08-04T07:38:37.959Z,1.30
2022-08-04T07:41:37.399Z,1.58
2022-08-04T07:44:07.736Z,1.45
2022-08-04T07:46:35.506Z,1.33
2022-08-04T07:49:03.535Z,1.48
2022-08-04T07:51:32.748Z,1.55
2022-08-04T07:54:03.315Z,1.40
2022-08-04T07:56:31.540Z,1.20
2022-08-04T07:58:59.322Z,1.63
2022-08-04T08:01:28.748Z,1.63
2022-08-04T08:03:58.021Z,1.92
2022-08-04T08:06:32.186Z,1.52
2022-08-04T08:09:02.065Z,1.50
2022-08-04T08:12:36.858Z,1.60
2022-08-04T08:14:30.191Z,1.45
2022-08-04T08:16:59.966Z,1.65
2022-08-04T08:19:27.447Z,1.20
2022-08-04T08:21:59.281Z,1.30
2022-08-04T08:24:27.791Z,1.40
2022-08-04T08:26:56.770Z,1.20
2022-08-04T08:29:24.528Z,1.40
2022-08-04T08:31:56.303Z,1.20
2022-08-04T08:34:29.165Z,1.35
2022-08-04T08:37:03.855Z,1.15
2022-08-04T08:39:38.379Z,1.10
2022-08-04T08:42:43.270Z,1.25
2022-08-04T08:45:33.467Z,1.02
2022-08-04T08:48:23.299Z,1.17
2022-08-04T08:51:07.868Z,1.20
2022-08-04T08:54:08.624Z,1.27
2022-08-04T08:56:45.934Z,1.10
2022-08-04T08:59:28.995Z,1.48
2022-08-04T09:02:12.591Z,1.05
2022-08-04T09:05:04.043Z,1.30
2022-08-04T09:07:46.798Z,1.05
2022-08-04T09:10:20.044Z,0.95
2022-08-04T09:12:52.432Z,1.00
2022-08-04T09:15:28.573Z,1.10
2022-08-04T09:18:00.458Z,1.10
2022-08-04T09:20:32.399Z,1.35
2022-08-04T09:23:14.395Z,0.90
2022-08-04T09:25:47.999Z,1.20
2022-08-04T09:31:12.070Z,1.20
2022-08-04T09:33:48.811Z,1.00
2022-08-04T09:36:27.140Z,1.20
2022-08-04T09:39:09.511Z,0.90
2022-08-04T09:41:49.443Z,1.02
2022-08-04T09:44:48.824Z,0.93
2022-08-04T09:47:25.544Z,1.10
2022-08-04T09:50:17.909Z,1.00
2022-08-04T09:52:50.585Z,1.00
2022-08-04T09:55:35.516Z,0.90
2022-08-04T09:58:09.350Z,0.90
2022-08-04T10:00:44.830Z,0.80
2022-08-04T10:03:19.675Z,1.08
2022-08-04T10:06:00.973Z,1.08
2022-08-04T10:08:44.366Z,0.73
2022-08-04T10:11:22.314Z,0.88
2022-08-04T10:13:57.811Z,1.30
2022-08-04T10:16:41.207Z,0.88
2022-08-04T10:19:21.543Z,0.77
2022-08-04T10:22:28.241Z,0.80
2022-08-04T10:25:01.578Z,0.80
2022-08-04T10:27:35.000Z,0.90
2022-08-04T10:30:11.769Z,0.70
2022-08-04T10:32:46.471Z,0.77
2022-08-04T10:35:15.807Z,0.80
2022-08-04T10:37:59.095Z,1.05
2022-08-04T10:40:45.158Z,0.80
2022-08-04T10:43:27.901Z,0.85
2022-08-04T10:46:00.710Z,1.00
2022-08-04T10:48:37.541Z,0.90
2022-08-04T10:51:16.967Z,0.80
2022-08-04T10:53:46.382Z,0.80
2022-08-04T10:56:18.809Z,0.80
2022-08-04T10:58:52.863Z,1.08
2022-08-04T11:01:59.950Z,0.80
2022-08-04T11:04:27.857Z,0.60
2022-08-04T11:06:56.960Z,1.00
2022-08-04T11:09:24.553Z,1.00
2022-08-04T11:12:01.255Z,1.30
2022-08-04T11:14:38.868Z,0.80
2022-08-04T11:17:09.568Z,1.00
2022-08-04T11:19:49.961Z,0.90
2022-08-04T11:22:25.858Z,0.90
2022-08-04T11:24:56.919Z,0.70
2022-08-04T11:27:30.205Z,0.90
2022-08-04T11:30:04.286Z,0.82
2022-08-04T11:32:38.772Z,0.90
2022-08-04T11:35:12.262Z,0.90
2022-08-04T11:37:46.445Z,0.70
2022-08-04T11:40:21.506Z,1.00
2022-08-04T11:42:56.201Z,0.80
2022-08-04T11:45:31.943Z,0.88
2022-08-04T11:48:02.301Z,0.98
2022-08-04T11:50:35.196Z,1.70
2022-08-04T11:53:03.899Z,0.90
2022-08-04T11:56:07.684Z,1.20
2022-08-04T11:58:22.831Z,0.98
2022-08-04T12:01:01.740Z,0.82
2022-08-04T12:03:40.358Z,0.70
2022-08-04T12:06:16.302Z,2.10
2022-08-04T12:09:03.410Z,1.15
2022-08-04T12:11:51.333Z,0.90
2022-08-04T12:14:34.695Z,0.90
2022-08-04T12:17:05.784Z,0.98
2022-08-04T12:20:03.107Z,0.90
2022-08-04T12:22:31.585Z,1.00
2022-08-04T12:25:04.284Z,0.82
2022-08-04T12:27:35.893Z,1.02
2022-08-04T12:30:59.819Z,0.82
2022-08-04T12:33:03.562Z,0.90
2022-08-04T12:35:38.058Z,1.13
2022-08-04T12:38:29.926Z,0.90
2022-08-04T12:40:59.641Z,1.23
2022-08-04T12:43:31.392Z,0.77
2022-08-04T12:46:04.014Z,0.90
2022-08-04T12:48:34.413Z,1.23
2022-08-04T12:51:03.223Z,0.90
2022-08-04T12:53:35.467Z,0.93
2022-08-04T12:56:26.685Z,0.85
2022-08-04T12:59:01.840Z,1.10
2022-08-04T13:02:08.821Z,1.10
2022-08-04T13:04:21.631Z,1.10
2022-08-04T13:07:04.538Z,1.20
2022-08-04T13:09:34.999Z,0.93
2022-08-04T13:12:07.059Z,0.90
2022-08-04T13:14:38.568Z,0.93
2022-08-04T13:17:06.581Z,1.00
2022-08-04T13:19:41.149Z,0.93
2022-08-04T13:22:28.045Z,1.00
2022-08-04T13:25:18.439Z,0.85
2022-08-04T13:27:48.371Z,1.13
2022-08-04T13:30:23.251Z,1.02
2022-08-04T13:32:56.066Z,1.15
2022-08-04T13:35:56.059Z,0.90
2022-08-04T13:38:15.818Z,1.50
2022-08-04T13:40:44.970Z,1.05
2022-08-04T13:44:16.294Z,0.90
2022-08-04T13:46:28.199Z,1.00
2022-08-04T13:51:57.808Z,1.25
2022-08-04T13:54:30.553Z,0.90
2022-08-04T13:57:01.935Z,1.95
2022-08-04T13:59:37.547Z,1.20
2022-08-04T14:02:07.181Z,1.15
2022-08-04T14:04:41.413Z,1.33
2022-08-04T14:07:17.979Z,0.95
2022-08-04T14:10:03.188Z,1.38
2022-08-04T14:12:45.844Z,1.10
2022-08-04T14:15:54.711Z,1.00
2022-08-04T14:18:25.813Z,0.93
2022-08-04T14:21:08.336Z,1.10
2022-08-04T14:23:47.384Z,1.35
2022-08-04T14:26:17.477Z,1.55
2022-08-04T14:29:08.589Z,1.33
2022-08-04T14:31:32.992Z,1.13
2022-08-04T14:34:05.121Z,0.95
2022-08-04T14:36:49.650Z,1.40
2022-08-04T14:39:41.597Z,1.65
2022-08-04T14:42:41.708Z,1.00
2022-08-04T14:45:10.336Z,1.13
2022-08-04T14:47:52.557Z,0.90
2022-08-04T14:50:20.828Z,1.30
2022-08-04T14:52:48.305Z,1.05
2022-08-04T14:55:22.455Z,1.10
2022-08-04T14:58:35.898Z,0.90
2022-08-04T15:00:38.713Z,1.33
2022-08-04T15:03:08.952Z,1.15
2022-08-04T15:06:01.757Z,1.15
2022-08-04T15:08:31.546Z,1.02
2022-08-04T15:11:02.887Z,1.10
2022-08-04T15:13:32.071Z,1.15
2022-08-04T15:16:07.072Z,1.13
2022-08-04T15:18:37.109Z,1.30
2022-08-04T15:21:05.581Z,1.02
2022-08-04T15:23:39.422Z,1.00
2022-08-04T15:26:12.603Z,1.10
2022-08-04T15:28:42.670Z,1.15
2022-08-04T15:32:05.474Z,1.05
2022-08-04T15:33:59.251Z,1.05
2022-08-04T15:36:35.692Z,0.90
2022-08-04T15:39:09.830Z,1.10
2022-08-04T15:41:55.419Z,1.17
2022-08-04T15:44:49.749Z,1.08
2022-08-04T15:49:45.383Z,1.17
2022-08-04T15:52:18.333Z,1.02
2022-08-04T15:54:52.700Z,0.90
2022-08-04T15:58:00.472Z,0.93
2022-08-04T16:00:28.243Z,1.02
2022-08-04T16:02:55.876Z,1.08
2022-08-04T16:05:40.290Z,0.88
2022-08-04T16:08:15.500Z,1.00
2022-08-04T16:10:45.294Z,0.80
2022-08-04T16:13:15.833Z,0.90
2022-08-04T16:15:46.789Z,0.98
2022-08-04T16:18:26.566Z,0.90
2022-08-04T16:20:56.717Z,1.05
2022-08-04T16:24:05.786Z,1.52
2022-08-04T16:26:54.312Z,0.90
2022-08-04T16:29:40.068Z,1.00
2022-08-04T16:32:10.330Z,1.10
2022-08-04T16:34:49.008Z,0.95
2022-08-04T16:37:19.357Z,1.00
2022-08-04T16:39:51.239Z,1.10
2022-08-04T16:42:31.443Z,1.20
2022-08-04T16:45:12.468Z,1.00
2022-08-04T16:48:03.630Z,0.98
2022-08-04T16:50:31.840Z,1.00
2022-08-04T16:52:59.490Z,1.40
2022-08-04T16:55:29.271Z,1.08
2022-08-04T16:57:59.118Z,1.15
2022-08-04T17:00:32.598Z,1.00
2022-08-04T17:03:03.365Z,0.90
2022-08-04T17:05:38.873Z,0.90
2022-08-04T17:08:29.260Z,1.20
2022-08-04T17:10:56.074Z,1.05
2022-08-04T17:14:03.927Z,1.02
2022-08-04T17:16:20.952Z,1.00
2022-08-04T17:18:50.730Z,0.98
2022-08-04T17:21:20.755Z,0.95
2022-08-04T17:24:16.447Z,0.88
2022-08-04T17:26:41.782Z,0.65
2022-08-04T17:29:13.407Z,0.77
2022-08-04T17:31:48.639Z,0.75
2022-08-04T17:34:21.245Z,1.20
2022-08-04T17:36:49.488Z,0.93
2022-08-04T17:39:20.152Z,0.95
2022-08-04T17:41:49.712Z,0.98
2022-08-04T17:44:17.683Z,1.05
2022-08-04T17:46:49.063Z,0.90
2022-08-04T17:49:23.209Z,0.95
2022-08-04T17:52:05.048Z,1.10
2022-08-04T17:54:39.185Z,1.00
2022-08-04T17:57:20.160Z,0.90
2022-08-04T17:59:58.054Z,1.00
2022-08-04T18:02:32.803Z,1.38
2022-08-04T18:05:07.435Z,0.93
2022-08-04T18:08:37.721Z,1.10
2022-08-04T18:10:43.271Z,1.17
2022-08-04T18:13:22.989Z,1.10
2022-08-04T18:15:51.748Z,1.00
2022-08-04T18:18:23.819Z,0.80
2022-08-04T18:20:51.502Z,1.05
2022-08-04T18:23:18.928Z,0.90
2022-08-04T18:25:58.703Z,0.82
2022-08-04T18:28:27.125Z,1.10
2022-08-04T18:30:58.091Z,1.10
2022-08-04T18:33:39.917Z,0.80
2022-08-04T18:36:32.795Z,0.97
2022-08-04T18:38:58.532Z,1.05
2022-08-04T18:41:26.795Z,1.23
2022-08-04T18:43:56.070Z,0.90
2022-08-04T18:46:26.904Z,1.25
2022-08-04T18:48:56.058Z,0.98
2022-08-04T18:51:30.589Z,0.98
2022-08-04T18:53:59.430Z,1.00
2022-08-04T18:56:29.729Z,0.80
2022-08-04T18:59:00.208Z,1.30
2022-08-04T19:01:30.291Z,1.10
2022-08-04T19:04:32.945Z,0.90
2022-08-04T19:07:25.103Z,1.13
2022-08-04T19:09:52.215Z,1.00
2022-08-04T19:12:27.339Z,1.17
2022-08-04T19:17:53.340Z,1.23
2022-08-04T19:20:25.712Z,1.10
2022-08-04T19:24:10.994Z,0.98
2022-08-04T19:26:03.909Z,1.10
2022-08-04T19:28:34.235Z,1.00
2022-08-04T19:31:03.852Z,0.95
2022-08-04T19:33:58.929Z,0.80
2022-08-04T19:36:20.748Z,1.00
2022-08-04T19:38:56.825Z,1.17
2022-08-04T19:41:24.425Z,1.15
2022-08-04T19:43:54.522Z,1.00
2022-08-04T19:46:24.751Z,1.10
2022-08-04T19:48:59.334Z,1.00
2022-08-04T19:51:29.588Z,1.00
2022-08-04T19:54:03.795Z,1.20
2022-08-04T19:56:40.462Z,1.20
2022-08-04T19:59:09.244Z,0.80
2022-08-04T20:01:44.108Z,1.10
2022-08-04T20:04:12.716Z,1.00
2022-08-04T20:06:42.462Z,1.02
2022-08-04T20:09:24.785Z,0.82
2022-08-04T20:11:54.621Z,1.05
2022-08-04T20:14:31.195Z,1.20
2022-08-04T20:17:00.465Z,0.90
2022-08-04T20:19:27.886Z,0.85
2022-08-04T20:22:00.092Z,1.10
2022-08-04T20:24:36.842Z,0.95
2022-08-04T20:27:14.894Z,0.93
2022-08-04T20:29:48.587Z,1.08
2022-08-04T20:32:19.231Z,0.88
2022-08-04T20:34:47.657Z,1.00
2022-08-04T20:37:16.681Z,0.70
2022-08-04T20:39:44.345Z,0.95
2022-08-04T20:42:12.374Z,1.05
2022-08-04T20:44:42.250Z,1.05
2022-08-04T20:47:14.024Z,1.10
2022-08-04T20:49:42.684Z,1.20
2022-08-04T20:52:20.215Z,1.08
2022-08-04T20:54:49.367Z,1.00
2022-08-04T20:57:47.707Z,1.23
2022-08-04T21:00:13.209Z,1.10
2022-08-04T21:02:41.466Z,1.05
2022-08-04T21:05:11.715Z,1.10
2022-08-04T21:07:43.915Z,1.00
2022-08-04T21:10:17.620Z,1.10
2022-08-04T21:12:49.871Z,1.10
2022-08-04T21:15:24.771Z,1.05
2022-08-04T21:17:57.601Z,2.55
2022-08-04T21:20:33.202Z,1.02
2022-08-04T21:23:03.681Z,0.80
2022-08-04T21:25:42.696Z,1.15
2022-08-04T21:28:11.285Z,1.10
2022-08-04T21:30:54.126Z,1.30
2022-08-04T21:33:24.620Z,1.13
2022-08-04T21:36:12.495Z,0.82
2022-08-04T21:38:40.047Z,1.27
2022-08-04T21:41:10.730Z,1.20
2022-08-04T21:43:43.105Z,1.35
2022-08-04T21:46:11.672Z,1.48
2022-08-04T21:48:39.345Z,1.00
2022-08-04T21:51:58.972Z,1.13
2022-08-04T21:54:07.640Z,1.40
2022-08-04T21:56:38.060Z,0.95
2022-08-04T21:59:11.516Z,1.10
2022-08-04T22:01:50.380Z,1.00
2022-08-04T22:04:22.292Z,1.35
2022-08-04T22:06:51.959Z,1.00
2022-08-04T22:09:21.560Z,1.30
2022-08-04T22:11:52.220Z,1.17
2022-08-04T22:14:27.566Z,1.30
2022-08-04T22:16:57.702Z,1.50
2022-08-04T22:19:50.314Z,1.20
2022-08-04T22:25:12.324Z,1.42
2022-08-04T22:28:01.682Z,1.58
2022-08-04T22:30:33.083Z,1.30
2022-08-04T22:33:05.458Z,1.63
2022-08-04T22:35:43.787Z,1.10
2022-08-04T22:38:28.860Z,1.52
2022-08-04T22:41:06.983Z,1.42
2022-08-04T22:43:37.517Z,1.50
2022-08-04T22:46:07.622Z,1.42
2022-08-04T22:48:36.776Z,1.30
2022-08-04T22:51:05.862Z,1.45
2022-08-04T22:53:35.387Z,1.60
2022-08-04T22:56:09.960Z,1.30
2022-08-04T22:58:45.357Z,1.42
2022-08-04T23:01:18.574Z,1.38
2022-08-04T23:03:51.102Z,1.60
2022-08-04T23:06:25.199Z,1.70
2022-08-04T23:08:52.995Z,1.65
2022-08-04T23:11:21.208Z,1.50
2022-08-04T23:13:50.307Z,1.90
2022-08-04T23:16:19.016Z,1.52
2022-08-04T23:18:49.100Z,1.67
2022-08-04T23:21:17.593Z,1.40
2022-08-04T23:24:02.170Z,1.80
2022-08-04T23:26:30.560Z,1.63
2022-08-04T23:28:59.558Z,1.50
2022-08-04T23:31:41.276Z,1.43
2022-08-04T23:34:18.952Z,1.90
2022-08-04T23:36:47.510Z,1.90
2022-08-04T23:39:15.290Z,1.50
2022-08-04T23:41:55.359Z,1.60
2022-08-04T23:44:26.831Z,1.63
2022-08-04T23:46:59.175Z,1.90
2022-08-04T23:49:43.927Z,1.40
2022-08-04T23:52:23.320Z,2.40
2022-08-04T23:54:57.049Z,1.40
2022-08-04T23:57:31.448Z,1.30
